Time;durP1;ratioP1;P1;durP2;ratioP2;P2;SDS_P1;SDS_P2;PMS_P1;PMS_P2;Temp;Humidity;BMP_temperature;BMP_pressure;BME280_temperature;BME280_humidity;BME280_pressure;Samples;Min_cycle;Max_cycle;Signal;HPM_P1;HPM_P2
2022/12/02 00:01:13;;;;;;;;;;;4.80;99.90;;;;;;4959820;28;20356;-65
2022/12/02 00:03:39;;;;;;;;;;;4.70;99.90;;;;;;4963460;28;20313;-65
2022/12/02 00:06:12;;;;;;;;;;;4.70;99.90;;;;;;4958501;28;19968;-65
2022/12/02 00:08:37;;;;;;;;;;;4.70;99.90;;;;;;4958640;28;19910;-65
2022/12/02 00:11:07;;;;;;;;;;;4.70;99.90;;;;;;4959077;28;19920;-65
2022/12/02 00:13:39;;;;;;;;;;;4.80;99.90;;;;;;4959804;28;20197;-65
2022/12/02 00:16:05;;;;;;;;;;;4.80;99.90;;;;;;4960747;28;19914;-65
2022/12/02 00:18:30;;;;;;;;;;;4.80;99.90;;;;;;4952273;28;20362;-67
2022/12/02 00:20:56;;;;;;;;;;;4.90;99.90;;;;;;4964767;28;20340;-65
2022/12/02 00:23:22;;;;;;;;;;;5.00;99.90;;;;;;4952609;28;19948;-65
2022/12/02 00:25:49;;;;;;;;;;;4.80;99.90;;;;;;4956854;28;19910;-65
2022/12/02 00:28:15;;;;;;;;;;;4.70;99.90;;;;;;4954883;28;20354;-65
2022/12/02 00:30:40;;;;;;;;;;;4.70;99.90;;;;;;4956587;28;19918;-64
2022/12/02 00:33:06;;;;;;;;;;;4.70;99.90;;;;;;4962892;28;19968;-65
2022/12/02 00:35:31;;;;;;;;;;;4.70;99.90;;;;;;4963920;28;20442;-64
2022/12/02 00:37:57;;;;;;;;;;;4.40;99.90;;;;;;4958507;28;19942;-65
2022/12/02 00:40:22;;;;;;;;;;;4.60;99.90;;;;;;4964273;28;19914;-64
2022/12/02 00:42:48;;;;;;;;;;;4.40;99.90;;;;;;4962787;28;19920;-64
2022/12/02 00:48:08;;;;;;;;;;;4.40;99.90;;;;;;4944355;28;19990;-65
2022/12/02 00:50:34;;;;;;;;;;;4.50;99.90;;;;;;4955556;28;19918;-64
2022/12/02 00:52:59;;;;;;;;;;;4.40;99.90;;;;;;4963190;28;19910;-65
2022/12/02 00:55:25;;;;;;;;;;;4.40;99.90;;;;;;4946381;28;19933;-65
2022/12/02 00:57:50;;;;;;;;;;;4.70;99.90;;;;;;4964417;28;19914;-65
2022/12/02 01:00:16;;;;;;;;;;;4.80;99.90;;;;;;4962094;28;19933;-65
2022/12/02 01:02:41;;;;;;;;;;;4.90;99.90;;;;;;4957819;28;19949;-65
2022/12/02 01:05:07;;;;;;;;;;;4.70;99.90;;;;;;4961864;28;19918;-64
2022/12/02 01:07:32;;;;;;;;;;;4.70;99.90;;;;;;4968097;28;19910;-65
2022/12/02 01:09:58;;;;;;;;;;;4.60;99.90;;;;;;4967889;28;19918;-65
2022/12/02 01:12:23;;;;;;;;;;;4.30;99.90;;;;;;4956573;28;20354;-65
2022/12/02 01:14:49;;;;;;;;;;;4.30;99.90;;;;;;4957756;28;19937;-64
2022/12/02 01:17:14;;;;;;;;;;;4.20;99.90;;;;;;4956450;28;19914;-64
2022/12/02 01:19:40;;;;;;;;;;;4.30;99.90;;;;;;4954092;28;19914;-65
2022/12/02 01:22:05;;;;;;;;;;;4.40;99.90;;;;;;4964710;28;19910;-65
2022/12/02 01:24:31;;;;;;;;;;;4.50;99.90;;;;;;4962615;28;19914;-65
2022/12/02 01:26:56;;;;;;;;;;;4.40;99.90;;;;;;4967284;28;19918;-65
2022/12/02 01:29:22;;;;;;;;;;;4.40;99.90;;;;;;4958014;28;20411;-64
2022/12/02 01:31:47;;;;;;;;;;;4.40;99.90;;;;;;4960125;28;19914;-64
2022/12/02 01:34:12;;;;;;;;;;;4.30;99.90;;;;;;4963196;28;19914;-64
2022/12/02 01:36:38;;;;;;;;;;;4.10;99.90;;;;;;4970515;28;19917;-64
2022/12/02 01:39:03;;;;;;;;;;;4.10;99.90;;;;;;4955542;28;19985;-64
2022/12/02 01:41:29;;;;;;;;;;;4.10;99.90;;;;;;4966934;28;19914;-64
2022/12/02 01:43:55;;;;;;;;;;;4.20;99.90;;;;;;4972045;28;20380;-64
2022/12/02 01:46:20;;;;;;;;;;;4.40;99.90;;;;;;4967316;28;20039;-64
2022/12/02 01:48:46;;;;;;;;;;;4.40;99.90;;;;;;4965246;28;19910;-64
2022/12/02 01:51:11;;;;;;;;;;;4.30;99.90;;;;;;4956444;28;19925;-65
2022/12/02 01:53:37;;;;;;;;;;;4.30;99.90;;;;;;4970425;28;19918;-64
2022/12/02 01:56:02;;;;;;;;;;;4.10;99.90;;;;;;4973689;28;19921;-64
2022/12/02 01:58:29;;;;;;;;;;;4.10;99.90;;;;;;4959656;28;19997;-64
2022/12/02 02:00:55;;;;;;;;;;;4.20;99.90;;;;;;4962223;28;19929;-64
2022/12/02 02:03:21;;;;;;;;;;;4.30;99.90;;;;;;4969264;28;19926;-65
2022/12/02 02:05:47;;;;;;;;;;;4.40;99.90;;;;;;4963771;28;20368;-65
2022/12/02 02:08:13;;;;;;;;;;;4.40;99.90;;;;;;4954722;28;19914;-64
2022/12/02 02:10:39;;;;;;;;;;;4.60;99.90;;;;;;4969348;28;19914;-64
2022/12/02 02:13:06;;;;;;;;;;;4.50;99.90;;;;;;4957102;28;19910;-65
2022/12/02 02:15:32;;;;;;;;;;;4.50;99.90;;;;;;4977286;28;19993;-65
2022/12/02 02:17:57;;;;;;;;;;;4.70;99.90;;;;;;4960697;28;20354;-65
2022/12/02 02:20:24;;;;;;;;;;;4.90;99.90;;;;;;4965168;28;20301;-65
2022/12/02 02:22:52;;;;;;;;;;;4.80;99.90;;;;;;4971994;28;19918;-65
2022/12/02 02:25:18;;;;;;;;;;;4.50;99.90;;;;;;4963933;28;20012;-64
2022/12/02 02:27:49;;;;;;;;;;;4.30;99.90;;;;;;4959926;28;19950;-64
2022/12/02 02:30:14;;;;;;;;;;;4.50;99.90;;;;;;4958876;28;19957;-65
2022/12/02 02:32:40;;;;;;;;;;;4.50;99.90;;;;;;4970397;28;20593;-64
2022/12/02 02:35:05;;;;;;;;;;;4.30;99.90;;;;;;4958510;28;19966;-64
2022/12/02 02:37:31;;;;;;;;;;;4.20;99.90;;;;;;4966747;28;19945;-64
2022/12/02 02:39:56;;;;;;;;;;;4.10;99.90;;;;;;4964435;28;20401;-65
2022/12/02 02:42:22;;;;;;;;;;;4.10;99.90;;;;;;4969185;28;20013;-65
2022/12/02 02:44:48;;;;;;;;;;;4.20;99.90;;;;;;4970130;28;19997;-65
2022/12/02 02:47:13;;;;;;;;;;;4.20;99.90;;;;;;4964260;28;19957;-64
2022/12/02 02:49:39;;;;;;;;;;;4.20;99.90;;;;;;4965429;28;19918;-65
2022/12/02 02:52:04;;;;;;;;;;;4.20;99.90;;;;;;4962773;28;19938;-64
2022/12/02 02:54:30;;;;;;;;;;;4.20;99.90;;;;;;4969344;28;19929;-65
2022/12/02 02:56:55;;;;;;;;;;;4.30;99.90;;;;;;4971133;28;19910;-65
2022/12/02 02:59:20;;;;;;;;;;;4.30;99.90;;;;;;4968490;28;19918;-65
2022/12/02 03:01:47;;;;;;;;;;;4.30;99.90;;;;;;4968776;28;20502;-64
2022/12/02 03:04:14;;;;;;;;;;;4.30;99.90;;;;;;4968436;28;19914;-64
2022/12/02 03:06:40;;;;;;;;;;;4.20;99.90;;;;;;4964031;28;20405;-64
2022/12/02 03:09:07;;;;;;;;;;;4.10;99.90;;;;;;4961902;28;20578;-64
2022/12/02 03:11:33;;;;;;;;;;;4.00;99.90;;;;;;4964900;28;19989;-64
2022/12/02 03:13:59;;;;;;;;;;;4.10;99.90;;;;;;4967853;28;19921;-65
2022/12/02 03:16:25;;;;;;;;;;;4.20;99.90;;;;;;4967058;28;19973;-65
2022/12/02 03:18:51;;;;;;;;;;;4.40;99.90;;;;;;4968905;28;19937;-65
2022/12/02 03:21:17;;;;;;;;;;;4.40;99.90;;;;;;4965851;28;20373;-65
2022/12/02 03:23:44;;;;;;;;;;;4.10;99.90;;;;;;4958269;28;20397;-65
2022/12/02 03:26:09;;;;;;;;;;;4.20;99.90;;;;;;4951975;28;20009;-64
2022/12/02 03:28:35;;;;;;;;;;;4.20;99.90;;;;;;4959705;28;20020;-64
2022/12/02 03:31:01;;;;;;;;;;;4.30;99.90;;;;;;4966240;28;20020;-65
2022/12/02 03:33:26;;;;;;;;;;;4.50;99.90;;;;;;4986144;28;19921;-65
2022/12/02 03:35:52;;;;;;;;;;;4.50;99.90;;;;;;4966603;28;19925;-65
2022/12/02 03:38:17;;;;;;;;;;;4.30;99.90;;;;;;4963175;28;19914;-65
2022/12/02 03:40:43;;;;;;;;;;;4.20;99.90;;;;;;4965917;28;20392;-65
2022/12/02 03:43:09;;;;;;;;;;;4.20;99.90;;;;;;4952894;28;19954;-64
2022/12/02 03:45:34;;;;;;;;;;;4.20;99.90;;;;;;4964439;28;19938;-64
2022/12/02 03:48:01;;;;;;;;;;;4.10;99.90;;;;;;4958294;28;19918;-65
2022/12/02 03:50:27;;;;;;;;;;;4.20;99.90;;;;;;4963106;28;19914;-65
2022/12/02 03:52:53;;;;;;;;;;;4.30;99.90;;;;;;4956592;28;19961;-65
2022/12/02 03:55:18;;;;;;;;;;;4.30;99.90;;;;;;4960101;28;19910;-65
2022/12/02 03:57:44;;;;;;;;;;;4.40;99.90;;;;;;4965981;28;19920;-65
2022/12/02 04:00:10;;;;;;;;;;;4.40;99.90;;;;;;4959446;28;20118;-65
2022/12/02 04:02:36;;;;;;;;;;;4.30;99.90;;;;;;4959525;28;20036;-65
2022/12/02 04:05:01;;;;;;;;;;;4.30;99.90;;;;;;4966419;28;20005;-64
2022/12/02 04:07:27;;;;;;;;;;;4.20;99.90;;;;;;4963141;28;19910;-65
2022/12/02 04:09:52;;;;;;;;;;;4.30;99.90;;;;;;4965123;28;19914;-65
2022/12/02 04:12:17;;;;;;;;;;;4.30;99.90;;;;;;4964564;28;20378;-64
2022/12/02 04:14:43;;;;;;;;;;;4.30;99.90;;;;;;4967253;28;19914;-65
2022/12/02 04:17:08;;;;;;;;;;;4.20;99.90;;;;;;4957850;28;19913;-65
2022/12/02 04:19:34;;;;;;;;;;;4.20;99.90;;;;;;4951626;28;19915;-65
2022/12/02 04:22:00;;;;;;;;;;;4.30;99.90;;;;;;4965776;28;19918;-65
2022/12/02 04:24:27;;;;;;;;;;;4.40;99.90;;;;;;4970654;28;19930;-64
2022/12/02 04:26:52;;;;;;;;;;;4.50;99.90;;;;;;4958740;28;19965;-65
2022/12/02 04:29:18;;;;;;;;;;;4.50;99.90;;;;;;4967785;28;19941;-65
2022/12/02 04:31:43;;;;;;;;;;;4.60;99.90;;;;;;4966548;28;20044;-65
2022/12/02 04:34:09;;;;;;;;;;;4.60;99.90;;;;;;4964099;28;19919;-65
2022/12/02 04:36:34;;;;;;;;;;;4.50;99.90;;;;;;4960710;28;20280;-65
2022/12/02 04:39:00;;;;;;;;;;;4.10;99.90;;;;;;4958202;28;19922;-64
2022/12/02 04:41:25;;;;;;;;;;;4.10;99.90;;;;;;4967371;28;19938;-64
2022/12/02 04:43:51;;;;;;;;;;;4.00;99.90;;;;;;4969527;28;19960;-65
2022/12/02 04:46:16;;;;;;;;;;;4.00;99.90;;;;;;4957210;28;19929;-65
2022/12/02 04:48:42;;;;;;;;;;;4.10;99.90;;;;;;4954087;28;19923;-65
2022/12/02 04:51:07;;;;;;;;;;;4.30;99.90;;;;;;4948740;28;19918;-65
2022/12/02 04:53:33;;;;;;;;;;;4.30;99.90;;;;;;4966902;28;19917;-65
2022/12/02 04:55:58;;;;;;;;;;;4.20;99.90;;;;;;4971529;28;19920;-65
2022/12/02 04:58:23;;;;;;;;;;;4.30;99.90;;;;;;4966270;28;19921;-65
2022/12/02 05:00:49;;;;;;;;;;;4.10;99.90;;;;;;4962957;28;19988;-65
2022/12/02 05:03:14;;;;;;;;;;;4.20;99.90;;;;;;4962513;28;19922;-65
2022/12/02 05:05:40;;;;;;;;;;;4.20;99.90;;;;;;4960769;28;19920;-65
2022/12/02 05:08:05;;;;;;;;;;;4.10;99.90;;;;;;4964242;28;20237;-65
2022/12/02 05:10:32;;;;;;;;;;;4.20;99.90;;;;;;4958467;28;20032;-64
2022/12/02 05:12:57;;;;;;;;;;;4.10;99.90;;;;;;4965966;28;19914;-65
2022/12/02 05:15:22;;;;;;;;;;;4.20;99.90;;;;;;4964304;28;19922;-65
2022/12/02 05:17:48;;;;;;;;;;;4.10;99.90;;;;;;4980859;28;19914;-65
2022/12/02 05:20:13;;;;;;;;;;;4.20;99.90;;;;;;4956443;28;20450;-65
2022/12/02 05:22:39;;;;;;;;;;;4.20;99.90;;;;;;4959411;28;19910;-65
2022/12/02 05:25:05;;;;;;;;;;;4.20;99.90;;;;;;4959772;28;19964;-65
2022/12/02 05:27:31;;;;;;;;;;;4.20;99.90;;;;;;4965491;28;20000;-65
2022/12/02 05:29:56;;;;;;;;;;;4.30;99.90;;;;;;4967060;28;20301;-65
2022/12/02 05:32:22;;;;;;;;;;;4.40;99.90;;;;;;4965605;28;19914;-64
2022/12/02 05:34:47;;;;;;;;;;;4.30;99.90;;;;;;4963123;28;19917;-65
2022/12/02 05:37:13;;;;;;;;;;;4.10;99.90;;;;;;4966065;28;19910;-65
2022/12/02 05:39:38;;;;;;;;;;;4.10;99.90;;;;;;4953571;28;20353;-64
2022/12/02 05:42:10;;;;;;;;;;;4.10;99.90;;;;;;4958357;28;19938;-65
2022/12/02 05:44:37;;;;;;;;;;;4.10;99.90;;;;;;4967117;28;20001;-65
2022/12/02 05:47:09;;;;;;;;;;;4.00;99.90;;;;;;4952031;28;19918;-64
2022/12/02 05:49:36;;;;;;;;;;;4.00;99.90;;;;;;4957766;28;19914;-65
2022/12/02 05:52:06;;;;;;;;;;;4.10;99.90;;;;;;4958280;28;20944;-65
2022/12/02 05:54:31;;;;;;;;;;;4.10;99.90;;;;;;4959752;28;19917;-65
2022/12/02 05:57:00;;;;;;;;;;;4.00;99.90;;;;;;4956867;28;20504;-64
2022/12/02 05:59:28;;;;;;;;;;;4.00;99.90;;;;;;4952450;28;20008;-65
2022/12/02 06:01:55;;;;;;;;;;;3.90;99.90;;;;;;4959133;28;20425;-65
2022/12/02 06:04:24;;;;;;;;;;;4.00;99.90;;;;;;4960178;28;20321;-65
2022/12/02 06:06:54;;;;;;;;;;;4.10;99.90;;;;;;4990269;28;20004;-65
2022/12/02 06:09:22;;;;;;;;;;;4.10;99.90;;;;;;4948611;28;19911;-64
2022/12/02 06:11:48;;;;;;;;;;;4.10;99.90;;;;;;4957124;28;20003;-65
2022/12/02 06:14:17;;;;;;;;;;;4.10;99.90;;;;;;4950132;28;19953;-65
2022/12/02 06:16:46;;;;;;;;;;;4.10;99.90;;;;;;4965314;28;19918;-65
2022/12/02 06:19:38;;;;;;;;;;;4.20;99.90;;;;;;4957586;28;20008;-65
2022/12/02 06:22:08;;;;;;;;;;;4.10;99.90;;;;;;4957656;28;19997;-65
2022/12/02 06:24:34;;;;;;;;;;;4.00;99.90;;;;;;4966771;28;19913;-65
2022/12/02 06:27:01;;;;;;;;;;;4.20;99.90;;;;;;4968236;28;19918;-65
2022/12/02 06:29:28;;;;;;;;;;;4.00;99.90;;;;;;4956018;28;19914;-65
2022/12/02 06:31:55;;;;;;;;;;;4.10;99.90;;;;;;4951102;28;20373;-64
2022/12/02 06:34:34;;;;;;;;;;;4.10;99.90;;;;;;4953443;28;19914;-65
2022/12/02 06:37:01;;;;;;;;;;;4.00;99.90;;;;;;4961711;28;20064;-65
2022/12/02 06:39:27;;;;;;;;;;;4.20;99.90;;;;;;4960265;28;19910;-65
2022/12/02 06:41:52;;;;;;;;;;;4.20;99.90;;;;;;4981332;28;20297;-65
2022/12/02 06:47:22;;;;;;;;;;;4.20;99.90;;;;;;4961632;28;20084;-65
2022/12/02 06:49:47;;;;;;;;;;;4.20;99.90;;;;;;4956719;28;19914;-65
2022/12/02 06:52:20;;;;;;;;;;;4.10;99.90;;;;;;4980709;28;19910;-65
2022/12/02 06:54:45;;;;;;;;;;;3.90;99.90;;;;;;4973959;28;19925;-65
2022/12/02 06:57:11;;;;;;;;;;;4.00;99.90;;;;;;4961942;28;20523;-65
2022/12/02 06:59:36;;;;;;;;;;;4.10;99.90;;;;;;4960747;28;20285;-65
2022/12/02 07:02:12;;;;;;;;;;;4.00;99.90;;;;;;4964311;28;19994;-65
2022/12/02 07:04:42;;;;;;;;;;;4.10;99.90;;;;;;4962104;28;20329;-65
2022/12/02 07:07:13;;;;;;;;;;;4.00;99.90;;;;;;4954365;28;19930;-65
2022/12/02 07:09:44;;;;;;;;;;;4.00;99.90;;;;;;4976178;28;19910;-65
2022/12/02 07:12:11;;;;;;;;;;;3.90;99.90;;;;;;4963863;28;19910;-65
2022/12/02 07:14:45;;;;;;;;;;;3.90;99.90;;;;;;4958143;28;19911;-65
2022/12/02 07:17:24;;;;;;;;;;;4.00;99.90;;;;;;4961583;28;19922;-67
2022/12/02 07:19:54;;;;;;;;;;;3.90;99.90;;;;;;4955269;28;20341;-65
2022/12/02 07:22:21;;;;;;;;;;;4.00;99.90;;;;;;4963673;28;19914;-65
2022/12/02 07:25:00;;;;;;;;;;;3.70;99.90;;;;;;4960888;28;20350;-65
2022/12/02 07:27:30;;;;;;;;;;;4.00;99.90;;;;;;4961809;28;20891;-65
2022/12/02 07:29:56;;;;;;;;;;;4.00;99.90;;;;;;4957424;28;19914;-65
2022/12/02 07:32:21;;;;;;;;;;;4.10;99.90;;;;;;4957987;28;20004;-64
2022/12/02 07:34:47;;;;;;;;;;;3.80;99.90;;;;;;4964721;28;20397;-65
2022/12/02 07:37:13;;;;;;;;;;;3.80;99.90;;;;;;4964248;28;20302;-65
2022/12/02 07:39:38;;;;;;;;;;;3.80;99.90;;;;;;4967224;28;20283;-65
2022/12/02 07:42:04;;;;;;;;;;;3.90;99.90;;;;;;4957212;28;19914;-65
2022/12/02 07:44:29;;;;;;;;;;;3.80;99.90;;;;;;4964539;28;20045;-64
2022/12/02 07:46:55;;;;;;;;;;;3.80;99.90;;;;;;4959096;28;19925;-65
2022/12/02 07:49:20;;;;;;;;;;;3.90;99.90;;;;;;4954391;28;20828;-65
2022/12/02 07:51:46;;;;;;;;;;;3.90;99.90;;;;;;4961871;28;20248;-65
2022/12/02 07:54:11;;;;;;;;;;;3.80;99.90;;;;;;4962634;28;20342;-64
2022/12/02 07:56:37;;;;;;;;;;;3.80;99.90;;;;;;4965866;28;19918;-65
2022/12/02 07:59:02;;;;;;;;;;;3.90;99.90;;;;;;4956078;28;19922;-65
2022/12/02 08:01:28;;;;;;;;;;;4.00;99.90;;;;;;4960569;28;19922;-65
2022/12/02 08:03:53;;;;;;;;;;;3.80;99.90;;;;;;4961938;28;19918;-65
2022/12/02 08:06:19;;;;;;;;;;;3.80;99.90;;;;;;4965968;28;19914;-65
2022/12/02 08:08:44;;;;;;;;;;;3.70;99.90;;;;;;4963867;28;19945;-65
2022/12/02 08:11:09;;;;;;;;;;;3.80;99.90;;;;;;4961800;28;19929;-65
2022/12/02 08:13:35;;;;;;;;;;;3.80;99.90;;;;;;4960922;28;19977;-65
2022/12/02 08:16:00;;;;;;;;;;;3.90;99.90;;;;;;4963127;28;19914;-65
2022/12/02 08:18:26;;;;;;;;;;;3.80;99.90;;;;;;4958306;28;20349;-65
2022/12/02 08:20:51;;;;;;;;;;;3.90;99.90;;;;;;4966474;28;19922;-64
2022/12/02 08:23:17;;;;;;;;;;;3.80;99.90;;;;;;4963355;28;20266;-65
2022/12/02 08:25:42;;;;;;;;;;;3.60;99.90;;;;;;4979118;28;20293;-65
2022/12/02 08:28:08;;;;;;;;;;;3.70;99.90;;;;;;4956858;28;19918;-65
2022/12/02 08:30:33;;;;;;;;;;;3.70;99.90;;;;;;4956066;28;19937;-65
2022/12/02 08:32:59;;;;;;;;;;;3.70;99.90;;;;;;4963248;28;20286;-65
2022/12/02 08:35:24;;;;;;;;;;;3.70;99.90;;;;;;4967873;28;19914;-65
2022/12/02 08:37:50;;;;;;;;;;;3.70;99.90;;;;;;4965281;28;19914;-65
2022/12/02 08:40:16;;;;;;;;;;;3.80;99.90;;;;;;4963154;28;20222;-65
2022/12/02 08:42:42;;;;;;;;;;;3.70;99.90;;;;;;4966319;28;19932;-65
2022/12/02 08:45:07;;;;;;;;;;;3.90;99.90;;;;;;4959554;28;19926;-65
2022/12/02 08:47:33;;;;;;;;;;;3.90;99.90;;;;;;4977626;28;19921;-65
2022/12/02 08:49:58;;;;;;;;;;;4.00;99.90;;;;;;4963416;28;20301;-65
2022/12/02 08:52:24;;;;;;;;;;;3.80;99.90;;;;;;4962746;28;19995;-65
2022/12/02 08:54:49;;;;;;;;;;;3.80;99.90;;;;;;4965801;28;19914;-65
2022/12/02 08:57:15;;;;;;;;;;;3.90;99.90;;;;;;4962010;28;20009;-65
2022/12/02 08:59:40;;;;;;;;;;;4.20;99.90;;;;;;4960038;28;19914;-65
2022/12/02 09:02:06;;;;;;;;;;;4.10;99.90;;;;;;4957450;28;19937;-65
2022/12/02 09:04:31;;;;;;;;;;;4.00;99.90;;;;;;4961822;28;20020;-65
2022/12/02 09:06:57;;;;;;;;;;;3.90;99.90;;;;;;4966334;28;19921;-65
2022/12/02 09:09:22;;;;;;;;;;;4.00;99.90;;;;;;4956629;28;19925;-65
2022/12/02 09:11:48;;;;;;;;;;;3.90;99.90;;;;;;4959895;28;19933;-65
2022/12/02 09:14:13;;;;;;;;;;;3.80;99.90;;;;;;4952804;28;20338;-65
2022/12/02 09:16:39;;;;;;;;;;;3.90;99.90;;;;;;4962150;28;19914;-65
2022/12/02 09:19:04;;;;;;;;;;;3.80;99.90;;;;;;4958461;28;20379;-65
2022/12/02 09:21:29;;;;;;;;;;;3.90;99.90;;;;;;4956349;28;19921;-65
2022/12/02 09:23:55;;;;;;;;;;;4.00;99.90;;;;;;4952466;28;19930;-65
2022/12/02 09:26:20;;;;;;;;;;;4.10;99.90;;;;;;4947495;28;19922;-65
2022/12/02 09:28:46;;;;;;;;;;;4.00;99.90;;;;;;4956458;28;20361;-65
2022/12/02 09:31:11;;;;;;;;;;;4.00;99.90;;;;;;4966769;28;20012;-65
2022/12/02 09:33:37;;;;;;;;;;;3.80;99.90;;;;;;4959678;28;19914;-65
2022/12/02 09:36:02;;;;;;;;;;;3.90;99.90;;;;;;4961530;28;20359;-65
2022/12/02 09:38:30;;;;;;;;;;;4.00;99.90;;;;;;4956012;28;19997;-66
2022/12/02 09:40:56;;;;;;;;;;;3.80;99.90;;;;;;4955542;28;19922;-65
2022/12/02 09:43:22;;;;;;;;;;;3.80;99.90;;;;;;4975781;28;19918;-65
2022/12/02 09:45:47;;;;;;;;;;;4.00;99.90;;;;;;4958689;28;20017;-65
2022/12/02 09:48:13;;;;;;;;;;;4.00;99.90;;;;;;4956997;28;19977;-66
2022/12/02 09:50:39;;;;;;;;;;;3.90;99.90;;;;;;4975347;28;19972;-66
2022/12/02 09:53:06;;;;;;;;;;;3.90;99.90;;;;;;4960507;28;19965;-63
2022/12/02 09:55:32;;;;;;;;;;;4.00;99.90;;;;;;4959157;28;20001;-64
2022/12/02 09:58:17;;;;;;;;;;;4.00;99.90;;;;;;4966515;28;20378;-64
2022/12/02 10:00:43;;;;;;;;;;;4.10;99.90;;;;;;4959745;28;19922;-65
2022/12/02 10:03:09;;;;;;;;;;;4.00;99.90;;;;;;4963650;28;20282;-64
2022/12/02 10:05:35;;;;;;;;;;;4.10;99.90;;;;;;4962260;28;19918;-64
2022/12/02 10:08:01;;;;;;;;;;;4.20;99.90;;;;;;4962440;28;20350;-64
2022/12/02 10:10:32;;;;;;;;;;;4.00;99.90;;;;;;4959138;28;19958;-65
2022/12/02 10:12:58;;;;;;;;;;;4.10;99.90;;;;;;4962636;28;19960;-66
2022/12/02 10:15:24;;;;;;;;;;;3.90;99.90;;;;;;4965094;28;19930;-67
2022/12/02 10:17:50;;;;;;;;;;;4.00;99.90;;;;;;4963170;28;19925;-65
2022/12/02 10:20:20;;;;;;;;;;;4.20;99.90;;;;;;4967625;28;20607;-67
2022/12/02 10:23:04;;;;;;;;;;;4.10;99.90;;;;;;4962055;28;19966;-65
2022/12/02 10:25:30;;;;;;;;;;;4.20;99.90;;;;;;4960892;28;19926;-65
2022/12/02 10:27:55;;;;;;;;;;;4.10;99.90;;;;;;4957758;28;19938;-65
2022/12/02 10:30:23;;;;;;;;;;;3.90;99.90;;;;;;4960186;28;19928;-65
2022/12/02 10:32:59;;;;;;;;;;;4.00;99.90;;;;;;4959167;28;19922;-66
2022/12/02 10:35:25;;;;;;;;;;;4.20;99.90;;;;;;4963518;28;19918;-66
2022/12/02 10:37:51;;;;;;;;;;;4.10;99.90;;;;;;4967274;28;20317;-65
2022/12/02 10:40:18;;;;;;;;;;;4.10;99.90;;;;;;4957370;28;19930;-65
2022/12/02 10:42:44;;;;;;;;;;;4.00;99.90;;;;;;4961380;28;19918;-66
2022/12/02 10:45:15;;;;;;;;;;;4.00;99.90;;;;;;4966164;28;19953;-65
2022/12/02 10:47:40;;;;;;;;;;;4.00;99.90;;;;;;4959099;28;19922;-65
2022/12/02 10:50:15;;;;;;;;;;;3.80;99.90;;;;;;4977226;28;20031;-64
2022/12/02 10:52:48;;;;;;;;;;;3.90;99.90;;;;;;4959451;28;19960;-65
2022/12/02 10:55:14;;;;;;;;;;;4.00;99.90;;;;;;4958599;28;20024;-65
2022/12/02 10:57:41;;;;;;;;;;;4.10;99.90;;;;;;4952144;28;20782;-65
2022/12/02 11:00:15;;;;;;;;;;;4.20;99.90;;;;;;4954618;28;21368;-65
2022/12/02 11:02:51;;;;;;;;;;;4.30;99.90;;;;;;4959287;28;19928;-65
2022/12/02 11:05:21;;;;;;;;;;;4.30;99.90;;;;;;4960338;28;19921;-65
2022/12/02 11:08:03;;;;;;;;;;;4.20;99.90;;;;;;4958742;28;20393;-65
2022/12/02 11:10:33;;;;;;;;;;;4.30;99.90;;;;;;4960557;28;19918;-64
2022/12/02 11:13:11;;;;;;;;;;;4.40;99.90;;;;;;4961888;28;19919;-65
2022/12/02 11:15:47;;;;;;;;;;;4.30;99.90;;;;;;4959676;28;19918;-65
2022/12/02 11:18:21;;;;;;;;;;;4.40;99.90;;;;;;4957297;28;19921;-65
2022/12/02 11:20:47;;;;;;;;;;;4.00;99.90;;;;;;4958781;28;19917;-65
2022/12/02 11:23:25;;;;;;;;;;;4.00;99.90;;;;;;4960350;28;19917;-65
2022/12/02 11:25:52;;;;;;;;;;;4.00;99.90;;;;;;4979241;28;19914;-65
2022/12/02 11:28:18;;;;;;;;;;;4.20;99.90;;;;;;4961443;28;19925;-65
2022/12/02 11:30:47;;;;;;;;;;;4.10;99.90;;;;;;4961662;28;19910;-65
2022/12/02 11:33:23;;;;;;;;;;;4.10;99.90;;;;;;4959003;28;20466;-65
2022/12/02 11:36:07;;;;;;;;;;;4.40;99.90;;;;;;4967370;28;19961;-65
2022/12/02 11:38:43;;;;;;;;;;;4.40;99.90;;;;;;4961801;28;20370;-65
2022/12/02 11:41:09;;;;;;;;;;;4.30;99.90;;;;;;4967702;28;19932;-66
2022/12/02 11:43:41;;;;;;;;;;;4.30;99.90;;;;;;4965181;28;20025;-64
2022/12/02 11:46:06;;;;;;;;;;;4.20;99.90;;;;;;4958702;28;20583;-64
2022/12/02 11:48:32;;;;;;;;;;;4.30;99.90;;;;;;4958046;28;20004;-65
2022/12/02 11:50:57;;;;;;;;;;;4.20;99.90;;;;;;4966732;28;19914;-66
2022/12/02 11:53:23;;;;;;;;;;;4.30;99.90;;;;;;4958874;28;19950;-66
2022/12/02 11:55:49;;;;;;;;;;;4.20;99.90;;;;;;4955464;28;19915;-66
2022/12/02 11:58:22;;;;;;;;;;;4.00;99.90;;;;;;4966215;28;19957;-66
2022/12/02 12:01:14;;;;;;;;;;;4.10;99.90;;;;;;4965773;28;19946;-66
2022/12/02 12:03:40;;;;;;;;;;;4.00;99.90;;;;;;4961543;28;19924;-66
2022/12/02 12:06:07;;;;;;;;;;;4.20;99.90;;;;;;4966294;28;20396;-66
2022/12/02 12:08:33;;;;;;;;;;;4.10;99.90;;;;;;4958403;28;19937;-66
2022/12/02 12:11:14;;;;;;;;;;;4.10;99.90;;;;;;4959233;28;19918;-66
2022/12/02 12:13:58;;;;;;;;;;;3.90;99.90;;;;;;4965247;28;19914;-66
2022/12/02 12:16:24;;;;;;;;;;;4.20;99.90;;;;;;4965446;28;20549;-67
2022/12/02 12:18:49;;;;;;;;;;;3.90;99.90;;;;;;4969153;28;19914;-66
2022/12/02 12:21:30;;;;;;;;;;;4.00;99.90;;;;;;4958898;28;19921;-66
2022/12/02 12:24:19;;;;;;;;;;;4.20;99.90;;;;;;4964562;28;20016;-66
2022/12/02 12:26:44;;;;;;;;;;;4.00;99.90;;;;;;4960428;28;20285;-66
2022/12/02 12:29:10;;;;;;;;;;;4.10;99.90;;;;;;4961068;28;19914;-66
2022/12/02 12:31:35;;;;;;;;;;;4.10;99.90;;;;;;4964347;28;19917;-66
2022/12/02 12:34:01;;;;;;;;;;;4.20;99.90;;;;;;4956259;28;20322;-66
2022/12/02 12:36:26;;;;;;;;;;;4.30;99.90;;;;;;4962243;28;19914;-66
2022/12/02 12:38:52;;;;;;;;;;;4.40;99.90;;;;;;4955855;28;19922;-66
2022/12/02 12:41:18;;;;;;;;;;;4.30;99.90;;;;;;4956295;28;19938;-66
2022/12/02 12:43:43;;;;;;;;;;;4.50;99.90;;;;;;4956771;28;19926;-65
2022/12/02 12:46:09;;;;;;;;;;;4.30;99.90;;;;;;4959658;28;19919;-66
2022/12/02 12:48:34;;;;;;;;;;;4.00;99.90;;;;;;4960846;28;19996;-66
2022/12/02 12:50:59;;;;;;;;;;;4.10;99.90;;;;;;4964075;28;19917;-66
2022/12/02 12:53:25;;;;;;;;;;;4.20;99.90;;;;;;4964084;28;19914;-66
2022/12/02 12:55:50;;;;;;;;;;;4.00;99.90;;;;;;4963000;28;20342;-66
2022/12/02 12:58:17;;;;;;;;;;;4.00;99.90;;;;;;4959953;28;19914;-66
2022/12/02 13:00:42;;;;;;;;;;;4.10;99.90;;;;;;4961789;28;20274;-66
2022/12/02 13:03:08;;;;;;;;;;;4.00;99.90;;;;;;4957971;28;19976;-66
2022/12/02 13:05:33;;;;;;;;;;;4.00;99.90;;;;;;4964710;28;19918;-66
2022/12/02 13:07:59;;;;;;;;;;;4.00;99.90;;;;;;4963464;28;19941;-65
2022/12/02 13:10:24;;;;;;;;;;;4.10;99.90;;;;;;4963736;28;20310;-66
2022/12/02 13:12:50;;;;;;;;;;;4.10;99.90;;;;;;4959618;28;19917;-65
2022/12/02 13:15:15;;;;;;;;;;;4.00;99.90;;;;;;4958661;28;19965;-66
2022/12/02 13:17:41;;;;;;;;;;;3.90;99.90;;;;;;4982639;28;19918;-66
2022/12/02 13:20:07;;;;;;;;;;;4.10;99.90;;;;;;4959673;28;19921;-66
2022/12/02 13:22:33;;;;;;;;;;;4.10;99.90;;;;;;4965220;28;19918;-66
2022/12/02 13:24:58;;;;;;;;;;;4.00;99.90;;;;;;4956751;28;19944;-66
2022/12/02 13:27:24;;;;;;;;;;;4.00;99.90;;;;;;4958115;28;20008;-66
2022/12/02 13:29:49;;;;;;;;;;;4.20;99.90;;;;;;4957982;28;19914;-65
2022/12/02 13:32:15;;;;;;;;;;;4.00;99.90;;;;;;4962498;28;20450;-66
2022/12/02 13:34:40;;;;;;;;;;;4.20;99.90;;;;;;4961248;28;19996;-65
2022/12/02 13:37:06;;;;;;;;;;;4.00;99.90;;;;;;4965074;28;20045;-65
2022/12/02 13:39:31;;;;;;;;;;;4.10;99.90;;;;;;4960720;28;20322;-66
2022/12/02 13:41:57;;;;;;;;;;;4.10;99.90;;;;;;4969885;28;20056;-66
2022/12/02 13:44:22;;;;;;;;;;;4.10;99.90;;;;;;4960716;28;19918;-66
2022/12/02 13:46:47;;;;;;;;;;;4.10;99.90;;;;;;4959412;28;20530;-65
2022/12/02 13:49:13;;;;;;;;;;;4.00;99.90;;;;;;4964505;28;19929;-66
2022/12/02 13:51:38;;;;;;;;;;;4.10;99.90;;;;;;4960842;28;19914;-66
2022/12/02 13:54:04;;;;;;;;;;;4.30;99.90;;;;;;4955554;28;19934;-66
2022/12/02 13:56:29;;;;;;;;;;;4.20;99.90;;;;;;4970321;28;19918;-66
2022/12/02 13:58:55;;;;;;;;;;;4.00;99.90;;;;;;4964116;28;19921;-66
2022/12/02 14:01:21;;;;;;;;;;;4.00;99.90;;;;;;4962069;28;20900;-66
2022/12/02 14:03:46;;;;;;;;;;;4.00;99.90;;;;;;4966124;28;19914;-66
2022/12/02 14:06:12;;;;;;;;;;;4.00;99.90;;;;;;4957126;28;20479;-65
2022/12/02 14:08:37;;;;;;;;;;;3.90;99.90;;;;;;4958740;28;19921;-66
2022/12/02 14:11:03;;;;;;;;;;;4.00;99.90;;;;;;4961426;28;19961;-65
2022/12/02 14:13:28;;;;;;;;;;;4.20;99.90;;;;;;4958646;28;20293;-65
2022/12/02 14:15:54;;;;;;;;;;;4.00;99.90;;;;;;4955512;28;19918;-66
2022/12/02 14:18:19;;;;;;;;;;;4.10;99.90;;;;;;4957206;28;19921;-66
2022/12/02 14:20:45;;;;;;;;;;;4.30;99.90;;;;;;4953465;28;19924;-66
2022/12/02 14:23:11;;;;;;;;;;;4.10;99.90;;;;;;4959356;28;19921;-65
2022/12/02 14:25:36;;;;;;;;;;;4.10;99.90;;;;;;4953594;28;19925;-66
2022/12/02 14:28:02;;;;;;;;;;;4.10;99.90;;;;;;4949099;28;19918;-66
2022/12/02 14:30:28;;;;;;;;;;;3.80;99.90;;;;;;4959634;28;19957;-65
2022/12/02 14:32:53;;;;;;;;;;;4.00;99.90;;;;;;4957435;28;19918;-66
2022/12/02 14:35:19;;;;;;;;;;;3.80;99.90;;;;;;4947925;28;19922;-65